sensor_id;sensor_type;location;lat;lon;timestamp;P1;durP1;ratioP1;P2;durP2;ratioP2
35239;SDS011;21376;50.954;4.716;2022-07-25T00:01:20;5.43;;;4.68;;
35239;SDS011;21376;50.954;4.716;2022-07-25T00:03:46;9.55;;;6.03;;
35239;SDS011;21376;50.954;4.716;2022-07-25T00:06:13;9.73;;;5.80;;
35239;SDS011;21376;50.954;4.716;2022-07-25T00:08:40;11.13;;;5.70;;
35239;SDS011;21376;50.954;4.716;2022-07-25T00:13:44;12.82;;;6.43;;
35239;SDS011;21376;50.954;4.716;2022-07-25T00:18:39;12.90;;;6.47;;
35239;SDS011;21376;50.954;4.716;2022-07-25T00:21:09;12.38;;;5.82;;
35239;SDS011;21376;50.954;4.716;2022-07-25T00:23:38;7.40;;;6.03;;
35239;SDS011;21376;50.954;4.716;2022-07-25T00:26:09;8.75;;;5.15;;
35239;SDS011;21376;50.954;4.716;2022-07-25T00:28:38;7.80;;;5.28;;
35239;SDS011;21376;50.954;4.716;2022-07-25T00:31:10;10.40;;;5.28;;
35239;SDS011;21376;50.954;4.716;2022-07-25T00:36:06;6.13;;;5.05;;
35239;SDS011;21376;50.954;4.716;2022-07-25T00:38:33;8.07;;;6.15;;
35239;SDS011;21376;50.954;4.716;2022-07-25T00:43:47;6.45;;;5.15;;
35239;SDS011;21376;50.954;4.716;2022-07-25T00:46:16;7.65;;;5.32;;
35239;SDS011;21376;50.954;4.716;2022-07-25T00:48:43;8.77;;;5.38;;
35239;SDS011;21376;50.954;4.716;2022-07-25T00:54:09;6.25;;;5.43;;
35239;SDS011;21376;50.954;4.716;2022-07-25T00:56:35;10.02;;;5.25;;
35239;SDS011;21376;50.954;4.716;2022-07-25T00:59:05;6.32;;;5.43;;
35239;SDS011;21376;50.954;4.716;2022-07-25T01:04:08;6.75;;;5.15;;
35239;SDS011;21376;50.954;4.716;2022-07-25T01:06:43;7.95;;;5.20;;
35239;SDS011;21376;50.954;4.716;2022-07-25T01:20:25;10.63;;;5.07;;
35239;SDS011;21376;50.954;4.716;2022-07-25T01:28:13;6.07;;;5.05;;
35239;SDS011;21376;50.954;4.716;2022-07-25T01:30:39;6.55;;;4.68;;
35239;SDS011;21376;50.954;4.716;2022-07-25T01:33:08;9.63;;;5.30;;
35239;SDS011;21376;50.954;4.716;2022-07-25T01:38:06;7.88;;;5.00;;
35239;SDS011;21376;50.954;4.716;2022-07-25T01:43:00;6.88;;;4.80;;
35239;SDS011;21376;50.954;4.716;2022-07-25T01:48:16;8.55;;;5.72;;
35239;SDS011;21376;50.954;4.716;2022-07-25T01:55:55;6.18;;;5.07;;
35239;SDS011;21376;50.954;4.716;2022-07-25T01:58:24;6.68;;;5.30;;
35239;SDS011;21376;50.954;4.716;2022-07-25T02:00:53;10.52;;;5.07;;
35239;SDS011;21376;50.954;4.716;2022-07-25T02:03:22;8.45;;;5.07;;
35239;SDS011;21376;50.954;4.716;2022-07-25T02:08:32;9.30;;;5.50;;
35239;SDS011;21376;50.954;4.716;2022-07-25T02:11:02;9.20;;;5.43;;
35239;SDS011;21376;50.954;4.716;2022-07-25T02:13:27;7.97;;;5.40;;
35239;SDS011;21376;50.954;4.716;2022-07-25T02:15:56;7.22;;;5.40;;
35239;SDS011;21376;50.954;4.716;2022-07-25T02:18:25;7.78;;;5.05;;
35239;SDS011;21376;50.954;4.716;2022-07-25T02:38:03;9.60;;;5.70;;
35239;SDS011;21376;50.954;4.716;2022-07-25T02:43:00;16.92;;;6.72;;
35239;SDS011;21376;50.954;4.716;2022-07-25T02:45:32;9.18;;;6.05;;
35239;SDS011;21376;50.954;4.716;2022-07-25T02:50:27;6.93;;;6.13;;
35239;SDS011;21376;50.954;4.716;2022-07-25T02:52:56;9.43;;;5.70;;
35239;SDS011;21376;50.954;4.716;2022-07-25T02:55:25;7.53;;;5.75;;
35239;SDS011;21376;50.954;4.716;2022-07-25T02:57:54;12.15;;;6.28;;
35239;SDS011;21376;50.954;4.716;2022-07-25T03:00:23;10.85;;;6.15;;
35239;SDS011;21376;50.954;4.716;2022-07-25T03:02:49;11.60;;;6.95;;
35239;SDS011;21376;50.954;4.716;2022-07-25T03:05:16;8.75;;;6.07;;
35239;SDS011;21376;50.954;4.716;2022-07-25T03:07:45;10.45;;;6.15;;
35239;SDS011;21376;50.954;4.716;2022-07-25T03:10:21;10.75;;;6.07;;
35239;SDS011;21376;50.954;4.716;2022-07-25T03:12:52;8.85;;;6.50;;
35239;SDS011;21376;50.954;4.716;2022-07-25T03:17:53;8.38;;;6.25;;
35239;SDS011;21376;50.954;4.716;2022-07-25T03:22:51;10.57;;;5.80;;
35239;SDS011;21376;50.954;4.716;2022-07-25T03:27:45;10.38;;;5.93;;
35239;SDS011;21376;50.954;4.716;2022-07-25T03:30:20;7.05;;;5.80;;
35239;SDS011;21376;50.954;4.716;2022-07-25T03:32:46;8.45;;;6.13;;
35239;SDS011;21376;50.954;4.716;2022-07-25T03:35:12;10.88;;;5.82;;
35239;SDS011;21376;50.954;4.716;2022-07-25T03:37:39;7.55;;;5.65;;
35239;SDS011;21376;50.954;4.716;2022-07-25T03:40:06;10.57;;;6.20;;
35239;SDS011;21376;50.954;4.716;2022-07-25T03:42:34;10.63;;;5.97;;
35239;SDS011;21376;50.954;4.716;2022-07-25T03:45:01;7.43;;;6.72;;
35239;SDS011;21376;50.954;4.716;2022-07-25T03:47:28;8.68;;;6.32;;
35239;SDS011;21376;50.954;4.716;2022-07-25T03:49:55;9.05;;;5.93;;
35239;SDS011;21376;50.954;4.716;2022-07-25T03:52:22;11.75;;;6.10;;
35239;SDS011;21376;50.954;4.716;2022-07-25T04:06:15;12.30;;;6.20;;
35239;SDS011;21376;50.954;4.716;2022-07-25T04:11:10;7.88;;;6.32;;
35239;SDS011;21376;50.954;4.716;2022-07-25T04:13:36;11.48;;;7.00;;
35239;SDS011;21376;50.954;4.716;2022-07-25T04:16:12;13.85;;;6.55;;
35239;SDS011;21376;50.954;4.716;2022-07-25T04:18:39;9.43;;;6.38;;
35239;SDS011;21376;50.954;4.716;2022-07-25T04:21:05;9.77;;;6.18;;
35239;SDS011;21376;50.954;4.716;2022-07-25T04:23:38;11.15;;;6.30;;
35239;SDS011;21376;50.954;4.716;2022-07-25T04:28:33;8.50;;;6.65;;
35239;SDS011;21376;50.954;4.716;2022-07-25T04:35:59;7.22;;;6.32;;
35239;SDS011;21376;50.954;4.716;2022-07-25T04:38:25;9.48;;;6.82;;
35239;SDS011;21376;50.954;4.716;2022-07-25T04:40:54;7.55;;;6.55;;
35239;SDS011;21376;50.954;4.716;2022-07-25T04:43:26;10.88;;;7.32;;
35239;SDS011;21376;50.954;4.716;2022-07-25T04:45:58;10.70;;;6.45;;
35239;SDS011;21376;50.954;4.716;2022-07-25T04:48:28;8.00;;;6.70;;
35239;SDS011;21376;50.954;4.716;2022-07-25T04:50:54;9.45;;;7.22;;
35239;SDS011;21376;50.954;4.716;2022-07-25T04:53:23;9.70;;;6.35;;
35239;SDS011;21376;50.954;4.716;2022-07-25T04:55:51;11.57;;;6.60;;
35239;SDS011;21376;50.954;4.716;2022-07-25T04:58:20;7.88;;;6.80;;
35239;SDS011;21376;50.954;4.716;2022-07-25T05:03:16;7.03;;;5.60;;
35239;SDS011;21376;50.954;4.716;2022-07-25T05:10:35;8.68;;;5.53;;
35239;SDS011;21376;50.954;4.716;2022-07-25T05:13:01;8.35;;;5.00;;
35239;SDS011;21376;50.954;4.716;2022-07-25T05:15:27;5.05;;;4.53;;
35239;SDS011;21376;50.954;4.716;2022-07-25T05:17:56;7.63;;;4.63;;
35239;SDS011;21376;50.954;4.716;2022-07-25T05:20:23;6.85;;;4.93;;
35239;SDS011;21376;50.954;4.716;2022-07-25T05:22:49;9.90;;;4.50;;
35239;SDS011;21376;50.954;4.716;2022-07-25T05:25:17;8.77;;;4.35;;
35239;SDS011;21376;50.954;4.716;2022-07-25T05:27:44;12.38;;;5.20;;
35239;SDS011;21376;50.954;4.716;2022-07-25T05:30:10;7.85;;;4.63;;
35239;SDS011;21376;50.954;4.716;2022-07-25T05:32:39;5.72;;;4.10;;
35239;SDS011;21376;50.954;4.716;2022-07-25T05:37:35;10.25;;;3.83;;
35239;SDS011;21376;50.954;4.716;2022-07-25T05:40:03;10.43;;;3.67;;
35239;SDS011;21376;50.954;4.716;2022-07-25T05:42:32;8.40;;;3.75;;
35239;SDS011;21376;50.954;4.716;2022-07-25T05:44:58;6.32;;;3.60;;
35239;SDS011;21376;50.954;4.716;2022-07-25T05:47:27;10.13;;;3.88;;
35239;SDS011;21376;50.954;4.716;2022-07-25T05:49:54;7.50;;;3.75;;
35239;SDS011;21376;50.954;4.716;2022-07-25T05:52:20;9.00;;;3.60;;
35239;SDS011;21376;50.954;4.716;2022-07-25T05:54:46;8.15;;;3.20;;
35239;SDS011;21376;50.954;4.716;2022-07-25T05:57:12;5.63;;;3.40;;
35239;SDS011;21376;50.954;4.716;2022-07-25T06:02:10;7.15;;;3.72;;
35239;SDS011;21376;50.954;4.716;2022-07-25T06:04:36;9.63;;;3.67;;
35239;SDS011;21376;50.954;4.716;2022-07-25T06:07:03;5.90;;;3.35;;
35239;SDS011;21376;50.954;4.716;2022-07-25T06:09:29;5.75;;;3.47;;
35239;SDS011;21376;50.954;4.716;2022-07-25T06:11:55;5.78;;;3.25;;
35239;SDS011;21376;50.954;4.716;2022-07-25T06:14:25;6.13;;;3.20;;
35239;SDS011;21376;50.954;4.716;2022-07-25T06:19:22;4.28;;;2.78;;
35239;SDS011;21376;50.954;4.716;2022-07-25T06:21:48;5.93;;;3.17;;
35239;SDS011;21376;50.954;4.716;2022-07-25T06:24:15;8.43;;;3.28;;
35239;SDS011;21376;50.954;4.716;2022-07-25T06:26:41;9.68;;;3.60;;
35239;SDS011;21376;50.954;4.716;2022-07-25T06:31:39;5.72;;;3.05;;
35239;SDS011;21376;50.954;4.716;2022-07-25T06:34:07;6.95;;;2.97;;
35239;SDS011;21376;50.954;4.716;2022-07-25T06:36:33;6.25;;;3.20;;
35239;SDS011;21376;50.954;4.716;2022-07-25T06:38:59;6.47;;;3.28;;
35239;SDS011;21376;50.954;4.716;2022-07-25T06:41:27;7.55;;;3.67;;
35239;SDS011;21376;50.954;4.716;2022-07-25T06:43:54;12.18;;;3.53;;
35239;SDS011;21376;50.954;4.716;2022-07-25T06:46:21;5.32;;;2.97;;
35239;SDS011;21376;50.954;4.716;2022-07-25T06:48:50;6.45;;;2.97;;
35239;SDS011;21376;50.954;4.716;2022-07-25T06:51:15;12.40;;;3.00;;
35239;SDS011;21376;50.954;4.716;2022-07-25T06:53:42;8.85;;;3.20;;
35239;SDS011;21376;50.954;4.716;2022-07-25T06:56:08;5.88;;;3.20;;
35239;SDS011;21376;50.954;4.716;2022-07-25T06:58:34;12.65;;;3.20;;
35239;SDS011;21376;50.954;4.716;2022-07-25T07:03:28;6.70;;;2.70;;
35239;SDS011;21376;50.954;4.716;2022-07-25T07:05:54;8.05;;;2.60;;
35239;SDS011;21376;50.954;4.716;2022-07-25T07:08:19;12.48;;;2.83;;
35239;SDS011;21376;50.954;4.716;2022-07-25T07:10:45;8.13;;;2.70;;
35239;SDS011;21376;50.954;4.716;2022-07-25T07:13:14;10.82;;;2.78;;
35239;SDS011;21376;50.954;4.716;2022-07-25T07:15:45;10.30;;;2.20;;
35239;SDS011;21376;50.954;4.716;2022-07-25T07:20:47;7.63;;;2.42;;
35239;SDS011;21376;50.954;4.716;2022-07-25T07:23:22;6.65;;;3.35;;
35239;SDS011;21376;50.954;4.716;2022-07-25T07:25:48;7.53;;;2.45;;
35239;SDS011;21376;50.954;4.716;2022-07-25T07:28:15;7.57;;;2.50;;
35239;SDS011;21376;50.954;4.716;2022-07-25T07:30:42;7.20;;;2.30;;
35239;SDS011;21376;50.954;4.716;2022-07-25T07:35:37;11.68;;;2.45;;
35239;SDS011;21376;50.954;4.716;2022-07-25T07:38:09;9.20;;;3.03;;
35239;SDS011;21376;50.954;4.716;2022-07-25T07:43:07;7.15;;;1.85;;
35239;SDS011;21376;50.954;4.716;2022-07-25T07:45:36;10.23;;;2.25;;
35239;SDS011;21376;50.954;4.716;2022-07-25T07:50:32;4.38;;;2.30;;
35239;SDS011;21376;50.954;4.716;2022-07-25T07:53:07;5.60;;;1.77;;
35239;SDS011;21376;50.954;4.716;2022-07-25T07:55:35;7.93;;;2.03;;
35239;SDS011;21376;50.954;4.716;2022-07-25T07:58:16;5.30;;;1.55;;
35239;SDS011;21376;50.954;4.716;2022-07-25T08:00:49;9.35;;;1.73;;
35239;SDS011;21376;50.954;4.716;2022-07-25T08:03:19;4.57;;;1.70;;
35239;SDS011;21376;50.954;4.716;2022-07-25T08:05:48;4.47;;;2.13;;
35239;SDS011;21376;50.954;4.716;2022-07-25T08:08:17;4.68;;;1.60;;
35239;SDS011;21376;50.954;4.716;2022-07-25T08:10:44;6.85;;;1.60;;
35239;SDS011;21376;50.954;4.716;2022-07-25T08:13:14;6.47;;;1.50;;
35239;SDS011;21376;50.954;4.716;2022-07-25T08:15:48;4.05;;;1.63;;
35239;SDS011;21376;50.954;4.716;2022-07-25T08:20:48;5.30;;;1.60;;
35239;SDS011;21376;50.954;4.716;2022-07-25T08:23:19;5.05;;;1.60;;
35239;SDS011;21376;50.954;4.716;2022-07-25T08:25:46;4.38;;;1.40;;
35239;SDS011;21376;50.954;4.716;2022-07-25T08:28:15;4.88;;;1.70;;
35239;SDS011;21376;50.954;4.716;2022-07-25T08:33:10;2.88;;;1.30;;
35239;SDS011;21376;50.954;4.716;2022-07-25T08:38:12;4.45;;;1.48;;
35239;SDS011;21376;50.954;4.716;2022-07-25T08:43:09;4.65;;;1.35;;
35239;SDS011;21376;50.954;4.716;2022-07-25T08:48:20;4.68;;;1.55;;
35239;SDS011;21376;50.954;4.716;2022-07-25T08:50:51;5.05;;;1.60;;
35239;SDS011;21376;50.954;4.716;2022-07-25T08:53:20;4.68;;;1.88;;
35239;SDS011;21376;50.954;4.716;2022-07-25T08:55:48;6.57;;;1.67;;
35239;SDS011;21376;50.954;4.716;2022-07-25T08:58:17;5.70;;;1.70;;
35239;SDS011;21376;50.954;4.716;2022-07-25T09:00:43;8.18;;;1.90;;
35239;SDS011;21376;50.954;4.716;2022-07-25T09:03:12;7.20;;;2.20;;
35239;SDS011;21376;50.954;4.716;2022-07-25T09:05:38;4.85;;;1.80;;
35239;SDS011;21376;50.954;4.716;2022-07-25T09:08:14;6.32;;;1.88;;
35239;SDS011;21376;50.954;4.716;2022-07-25T09:10:49;6.10;;;1.70;;
35239;SDS011;21376;50.954;4.716;2022-07-25T09:13:20;2.17;;;1.50;;
35239;SDS011;21376;50.954;4.716;2022-07-25T09:15:49;4.88;;;1.50;;
35239;SDS011;21376;50.954;4.716;2022-07-25T09:20:54;4.63;;;1.55;;
35239;SDS011;21376;50.954;4.716;2022-07-25T09:23:30;4.03;;;2.03;;
35239;SDS011;21376;50.954;4.716;2022-07-25T09:29:02;3.40;;;1.40;;
35239;SDS011;21376;50.954;4.716;2022-07-25T09:31:31;4.80;;;1.50;;
35239;SDS011;21376;50.954;4.716;2022-07-25T09:33:58;7.57;;;2.13;;
35239;SDS011;21376;50.954;4.716;2022-07-25T09:38:58;10.13;;;1.70;;
35239;SDS011;21376;50.954;4.716;2022-07-25T09:44:19;5.80;;;1.40;;
35239;SDS011;21376;50.954;4.716;2022-07-25T09:46:56;9.88;;;2.08;;
35239;SDS011;21376;50.954;4.716;2022-07-25T09:49:43;4.80;;;1.50;;
35239;SDS011;21376;50.954;4.716;2022-07-25T09:52:10;4.28;;;1.50;;
35239;SDS011;21376;50.954;4.716;2022-07-25T09:54:39;4.72;;;1.60;;
35239;SDS011;21376;50.954;4.716;2022-07-25T09:57:08;4.13;;;1.70;;
35239;SDS011;21376;50.954;4.716;2022-07-25T09:59:37;3.85;;;1.50;;
35239;SDS011;21376;50.954;4.716;2022-07-25T10:05:43;4.13;;;1.55;;
35239;SDS011;21376;50.954;4.716;2022-07-25T10:10:53;3.50;;;1.65;;
35239;SDS011;21376;50.954;4.716;2022-07-25T10:13:30;3.20;;;1.50;;
35239;SDS011;21376;50.954;4.716;2022-07-25T10:18:48;2.03;;;1.45;;
35239;SDS011;21376;50.954;4.716;2022-07-25T10:21:19;2.00;;;1.52;;
35239;SDS011;21376;50.954;4.716;2022-07-25T10:24:01;5.30;;;1.73;;
35239;SDS011;21376;50.954;4.716;2022-07-25T10:26:32;1.73;;;1.50;;
35239;SDS011;21376;50.954;4.716;2022-07-25T10:38:28;7.13;;;2.20;;
35239;SDS011;21376;50.954;4.716;2022-07-25T10:41:00;3.72;;;1.70;;
35239;SDS011;21376;50.954;4.716;2022-07-25T10:43:28;7.82;;;1.92;;
35239;SDS011;21376;50.954;4.716;2022-07-25T10:46:10;4.28;;;2.17;;
35239;SDS011;21376;50.954;4.716;2022-07-25T10:48:43;2.72;;;1.95;;
35239;SDS011;21376;50.954;4.716;2022-07-25T10:51:16;6.22;;;2.47;;
35239;SDS011;21376;50.954;4.716;2022-07-25T10:53:52;5.00;;;1.83;;
35239;SDS011;21376;50.954;4.716;2022-07-25T10:56:18;6.47;;;2.63;;
35239;SDS011;21376;50.954;4.716;2022-07-25T10:58:58;4.93;;;2.42;;
35239;SDS011;21376;50.954;4.716;2022-07-25T11:01:34;6.65;;;1.88;;
35239;SDS011;21376;50.954;4.716;2022-07-25T11:04:04;6.25;;;2.20;;
35239;SDS011;21376;50.954;4.716;2022-07-25T11:09:26;3.92;;;2.08;;
35239;SDS011;21376;50.954;4.716;2022-07-25T11:14:29;3.55;;;1.98;;
35239;SDS011;21376;50.954;4.716;2022-07-25T11:17:23;22.40;;;2.78;;
35239;SDS011;21376;50.954;4.716;2022-07-25T11:19:59;7.13;;;2.20;;
35239;SDS011;21376;50.954;4.716;2022-07-25T11:25:02;8.57;;;2.53;;
35239;SDS011;21376;50.954;4.716;2022-07-25T11:27:41;4.60;;;2.10;;
35239;SDS011;21376;50.954;4.716;2022-07-25T11:30:14;7.00;;;2.63;;
35239;SDS011;21376;50.954;4.716;2022-07-25T11:32:48;5.97;;;2.55;;
35239;SDS011;21376;50.954;4.716;2022-07-25T11:38:12;9.02;;;3.08;;
35239;SDS011;21376;50.954;4.716;2022-07-25T11:40:42;6.43;;;2.38;;
35239;SDS011;21376;50.954;4.716;2022-07-25T11:43:18;7.38;;;2.30;;
35239;SDS011;21376;50.954;4.716;2022-07-25T11:46:03;6.75;;;2.35;;
35239;SDS011;21376;50.954;4.716;2022-07-25T11:51:13;7.20;;;2.63;;
35239;SDS011;21376;50.954;4.716;2022-07-25T11:53:47;10.23;;;2.30;;
35239;SDS011;21376;50.954;4.716;2022-07-25T11:56:18;9.55;;;2.88;;
35239;SDS011;21376;50.954;4.716;2022-07-25T11:58:59;7.40;;;2.50;;
35239;SDS011;21376;50.954;4.716;2022-07-25T12:04:51;5.15;;;2.33;;
35239;SDS011;21376;50.954;4.716;2022-07-25T12:07:21;7.63;;;2.13;;
35239;SDS011;21376;50.954;4.716;2022-07-25T12:10:00;8.95;;;2.33;;
35239;SDS011;21376;50.954;4.716;2022-07-25T12:12:39;7.30;;;2.70;;
35239;SDS011;21376;50.954;4.716;2022-07-25T12:15:10;12.65;;;3.30;;
35239;SDS011;21376;50.954;4.716;2022-07-25T12:17:39;10.35;;;2.95;;
35239;SDS011;21376;50.954;4.716;2022-07-25T12:20:15;10.13;;;2.70;;
35239;SDS011;21376;50.954;4.716;2022-07-25T12:22:58;5.93;;;2.47;;
35239;SDS011;21376;50.954;4.716;2022-07-25T12:28:03;6.38;;;2.20;;
35239;SDS011;21376;50.954;4.716;2022-07-25T12:30:31;4.15;;;1.77;;
35239;SDS011;21376;50.954;4.716;2022-07-25T12:32:58;6.70;;;2.05;;
35239;SDS011;21376;50.954;4.716;2022-07-25T12:35:26;7.60;;;1.98;;
35239;SDS011;21376;50.954;4.716;2022-07-25T12:37:55;8.90;;;2.03;;
35239;SDS011;21376;50.954;4.716;2022-07-25T12:40:21;11.30;;;2.67;;
35239;SDS011;21376;50.954;4.716;2022-07-25T12:42:48;4.30;;;2.00;;
35239;SDS011;21376;50.954;4.716;2022-07-25T12:45:14;5.28;;;1.63;;
35239;SDS011;21376;50.954;4.716;2022-07-25T12:47:43;8.35;;;3.65;;
35239;SDS011;21376;50.954;4.716;2022-07-25T12:50:13;6.97;;;1.63;;
35239;SDS011;21376;50.954;4.716;2022-07-25T12:52:40;7.00;;;2.05;;
35239;SDS011;21376;50.954;4.716;2022-07-25T12:57:37;6.82;;;1.90;;
35239;SDS011;21376;50.954;4.716;2022-07-25T13:00:05;5.53;;;1.70;;
35239;SDS011;21376;50.954;4.716;2022-07-25T13:02:33;6.07;;;2.35;;
35239;SDS011;21376;50.954;4.716;2022-07-25T13:05:02;5.53;;;1.75;;
35239;SDS011;21376;50.954;4.716;2022-07-25T13:07:30;5.32;;;2.10;;
35239;SDS011;21376;50.954;4.716;2022-07-25T13:10:00;8.05;;;2.10;;
35239;SDS011;21376;50.954;4.716;2022-07-25T13:12:33;7.40;;;2.50;;
35239;SDS011;21376;50.954;4.716;2022-07-25T13:14:59;5.90;;;2.17;;
35239;SDS011;21376;50.954;4.716;2022-07-25T13:17:26;8.48;;;2.20;;
35239;SDS011;21376;50.954;4.716;2022-07-25T13:19:53;7.43;;;2.08;;
35239;SDS011;21376;50.954;4.716;2022-07-25T13:22:19;6.45;;;1.80;;
35239;SDS011;21376;50.954;4.716;2022-07-25T13:24:44;6.60;;;1.80;;
35239;SDS011;21376;50.954;4.716;2022-07-25T13:27:13;6.75;;;2.08;;
35239;SDS011;21376;50.954;4.716;2022-07-25T13:29:41;5.82;;;1.65;;
35239;SDS011;21376;50.954;4.716;2022-07-25T13:32:07;5.57;;;2.15;;
35239;SDS011;21376;50.954;4.716;2022-07-25T13:34:33;6.18;;;1.80;;
35239;SDS011;21376;50.954;4.716;2022-07-25T13:36:59;6.18;;;2.08;;
35239;SDS011;21376;50.954;4.716;2022-07-25T13:39:25;9.75;;;1.90;;
35239;SDS011;21376;50.954;4.716;2022-07-25T13:41:53;9.25;;;1.77;;
35239;SDS011;21376;50.954;4.716;2022-07-25T13:44:20;10.82;;;2.08;;
35239;SDS011;21376;50.954;4.716;2022-07-25T13:46:46;10.05;;;2.17;;
35239;SDS011;21376;50.954;4.716;2022-07-25T13:49:16;8.48;;;1.85;;
35239;SDS011;21376;50.954;4.716;2022-07-25T13:51:43;8.10;;;1.92;;
35239;SDS011;21376;50.954;4.716;2022-07-25T13:54:10;8.63;;;1.80;;
35239;SDS011;21376;50.954;4.716;2022-07-25T13:56:40;10.10;;;1.88;;
35239;SDS011;21376;50.954;4.716;2022-07-25T13:59:07;8.82;;;2.15;;
35239;SDS011;21376;50.954;4.716;2022-07-25T14:01:33;10.43;;;2.33;;
35239;SDS011;21376;50.954;4.716;2022-07-25T14:06:28;13.68;;;2.45;;
35239;SDS011;21376;50.954;4.716;2022-07-25T14:08:53;7.22;;;2.00;;
35239;SDS011;21376;50.954;4.716;2022-07-25T14:11:19;6.70;;;1.80;;
35239;SDS011;21376;50.954;4.716;2022-07-25T14:13:45;6.68;;;2.10;;
35239;SDS011;21376;50.954;4.716;2022-07-25T14:16:11;7.40;;;1.80;;
35239;SDS011;21376;50.954;4.716;2022-07-25T14:18:43;13.98;;;2.53;;
35239;SDS011;21376;50.954;4.716;2022-07-25T14:21:08;12.63;;;1.48;;
35239;SDS011;21376;50.954;4.716;2022-07-25T14:23:40;7.38;;;1.50;;
35239;SDS011;21376;50.954;4.716;2022-07-25T14:26:09;3.50;;;1.20;;
35239;SDS011;21376;50.954;4.716;2022-07-25T14:28:36;6.15;;;1.77;;
35239;SDS011;21376;50.954;4.716;2022-07-25T14:31:05;6.88;;;1.50;;
35239;SDS011;21376;50.954;4.716;2022-07-25T14:33:32;6.90;;;1.40;;
35239;SDS011;21376;50.954;4.716;2022-07-25T14:36:03;4.03;;;1.33;;
35239;SDS011;21376;50.954;4.716;2022-07-25T14:38:35;14.02;;;2.28;;
35239;SDS011;21376;50.954;4.716;2022-07-25T14:41:03;8.68;;;1.80;;
35239;SDS011;21376;50.954;4.716;2022-07-25T14:43:34;8.25;;;1.60;;
35239;SDS011;21376;50.954;4.716;2022-07-25T14:46:00;4.28;;;1.33;;
35239;SDS011;21376;50.954;4.716;2022-07-25T14:48:29;3.60;;;1.40;;
35239;SDS011;21376;50.954;4.716;2022-07-25T14:50:57;7.53;;;1.55;;
35239;SDS011;21376;50.954;4.716;2022-07-25T14:53:25;5.78;;;1.55;;
35239;SDS011;21376;50.954;4.716;2022-07-25T14:58:23;7.82;;;1.50;;
35239;SDS011;21376;50.954;4.716;2022-07-25T15:00:55;7.35;;;1.33;;
35239;SDS011;21376;50.954;4.716;2022-07-25T15:03:23;8.32;;;1.30;;
35239;SDS011;21376;50.954;4.716;2022-07-25T15:05:52;6.00;;;1.13;;
35239;SDS011;21376;50.954;4.716;2022-07-25T15:08:17;8.05;;;1.17;;
35239;SDS011;21376;50.954;4.716;2022-07-25T15:10:46;10.65;;;1.40;;
35239;SDS011;21376;50.954;4.716;2022-07-25T15:13:15;7.70;;;1.17;;
35239;SDS011;21376;50.954;4.716;2022-07-25T15:18:21;8.38;;;1.55;;
35239;SDS011;21376;50.954;4.716;2022-07-25T15:26:38;10.05;;;1.65;;
35239;SDS011;21376;50.954;4.716;2022-07-25T15:31:43;6.25;;;1.05;;
35239;SDS011;21376;50.954;4.716;2022-07-25T15:36:41;5.93;;;1.35;;
35239;SDS011;21376;50.954;4.716;2022-07-25T15:41:38;4.25;;;1.20;;
35239;SDS011;21376;50.954;4.716;2022-07-25T15:44:07;11.15;;;1.15;;
35239;SDS011;21376;50.954;4.716;2022-07-25T15:49:06;3.38;;;0.90;;
35239;SDS011;21376;50.954;4.716;2022-07-25T15:54:04;4.72;;;0.90;;
35239;SDS011;21376;50.954;4.716;2022-07-25T15:59:06;4.72;;;0.80;;
35239;SDS011;21376;50.954;4.716;2022-07-25T16:01:35;4.30;;;1.00;;
35239;SDS011;21376;50.954;4.716;2022-07-25T16:04:01;3.10;;;0.73;;
35239;SDS011;21376;50.954;4.716;2022-07-25T16:06:27;4.57;;;0.98;;
35239;SDS011;21376;50.954;4.716;2022-07-25T16:14:20;8.80;;;0.85;;
35239;SDS011;21376;50.954;4.716;2022-07-25T16:16:48;3.85;;;0.70;;
35239;SDS011;21376;50.954;4.716;2022-07-25T16:19:17;8.02;;;0.80;;
35239;SDS011;21376;50.954;4.716;2022-07-25T16:24:19;6.13;;;0.88;;
35239;SDS011;21376;50.954;4.716;2022-07-25T16:26:50;4.70;;;0.70;;
35239;SDS011;21376;50.954;4.716;2022-07-25T16:35:43;3.25;;;0.80;;
35239;SDS011;21376;50.954;4.716;2022-07-25T16:38:15;11.63;;;1.08;;
35239;SDS011;21376;50.954;4.716;2022-07-25T16:43:16;10.90;;;1.30;;
35239;SDS011;21376;50.954;4.716;2022-07-25T16:45:52;8.38;;;1.00;;
35239;SDS011;21376;50.954;4.716;2022-07-25T16:50:49;5.95;;;0.90;;
35239;SDS011;21376;50.954;4.716;2022-07-25T16:53:27;4.10;;;0.98;;
35239;SDS011;21376;50.954;4.716;2022-07-25T16:58:31;6.07;;;1.15;;
35239;SDS011;21376;50.954;4.716;2022-07-25T17:01:00;3.63;;;1.13;;
35239;SDS011;21376;50.954;4.716;2022-07-25T17:03:27;3.92;;;0.90;;
35239;SDS011;21376;50.954;4.716;2022-07-25T17:11:13;1.58;;;0.70;;
35239;SDS011;21376;50.954;4.716;2022-07-25T17:13:39;8.00;;;0.90;;
35239;SDS011;21376;50.954;4.716;2022-07-25T17:16:06;5.20;;;0.80;;
35239;SDS011;21376;50.954;4.716;2022-07-25T17:21:06;4.50;;;1.30;;
35239;SDS011;21376;50.954;4.716;2022-07-25T17:26:31;5.22;;;0.98;;
35239;SDS011;21376;50.954;4.716;2022-07-25T17:28:56;3.20;;;0.90;;
35239;SDS011;21376;50.954;4.716;2022-07-25T17:31:26;2.15;;;0.70;;
35239;SDS011;21376;50.954;4.716;2022-07-25T17:33:54;6.85;;;0.82;;
35239;SDS011;21376;50.954;4.716;2022-07-25T17:36:20;5.03;;;0.90;;
35239;SDS011;21376;50.954;4.716;2022-07-25T17:38:49;8.35;;;0.90;;
35239;SDS011;21376;50.954;4.716;2022-07-25T17:41:18;6.20;;;0.90;;
35239;SDS011;21376;50.954;4.716;2022-07-25T17:43:43;2.78;;;0.77;;
35239;SDS011;21376;50.954;4.716;2022-07-25T17:46:15;7.45;;;1.08;;
35239;SDS011;21376;50.954;4.716;2022-07-25T17:48:44;8.38;;;0.90;;
35239;SDS011;21376;50.954;4.716;2022-07-25T17:51:10;5.55;;;0.90;;
35239;SDS011;21376;50.954;4.716;2022-07-25T17:53:42;4.78;;;0.80;;
35239;SDS011;21376;50.954;4.716;2022-07-25T17:56:16;3.75;;;0.90;;
35239;SDS011;21376;50.954;4.716;2022-07-25T17:58:45;1.73;;;1.00;;
35239;SDS011;21376;50.954;4.716;2022-07-25T18:01:14;7.03;;;1.63;;
35239;SDS011;21376;50.954;4.716;2022-07-25T18:03:42;3.35;;;1.15;;
35239;SDS011;21376;50.954;4.716;2022-07-25T18:08:37;9.18;;;1.30;;
35239;SDS011;21376;50.954;4.716;2022-07-25T18:11:06;3.50;;;0.98;;
35239;SDS011;21376;50.954;4.716;2022-07-25T18:13:32;5.15;;;1.23;;
35239;SDS011;21376;50.954;4.716;2022-07-25T18:16:15;7.88;;;1.13;;
35239;SDS011;21376;50.954;4.716;2022-07-25T18:21:10;4.40;;;1.10;;
35239;SDS011;21376;50.954;4.716;2022-07-25T18:23:35;6.85;;;1.05;;
35239;SDS011;21376;50.954;4.716;2022-07-25T18:26:04;11.38;;;1.27;;
35239;SDS011;21376;50.954;4.716;2022-07-25T18:28:30;3.88;;;1.00;;
35239;SDS011;21376;50.954;4.716;2022-07-25T18:31:01;6.35;;;1.23;;
35239;SDS011;21376;50.954;4.716;2022-07-25T18:33:31;7.43;;;1.25;;
35239;SDS011;21376;50.954;4.716;2022-07-25T18:36:00;13.98;;;1.20;;
35239;SDS011;21376;50.954;4.716;2022-07-25T18:40:55;5.03;;;1.27;;
35239;SDS011;21376;50.954;4.716;2022-07-25T18:45:56;6.40;;;1.40;;
35239;SDS011;21376;50.954;4.716;2022-07-25T18:50:54;6.50;;;1.08;;
35239;SDS011;21376;50.954;4.716;2022-07-25T18:53:19;4.68;;;1.05;;
35239;SDS011;21376;50.954;4.716;2022-07-25T18:56:03;4.15;;;1.10;;
35239;SDS011;21376;50.954;4.716;2022-07-25T19:01:04;3.95;;;1.00;;
35239;SDS011;21376;50.954;4.716;2022-07-25T19:03:36;7.57;;;1.00;;
35239;SDS011;21376;50.954;4.716;2022-07-25T19:08:31;4.40;;;1.00;;
35239;SDS011;21376;50.954;4.716;2022-07-25T19:13:26;4.90;;;1.20;;
35239;SDS011;21376;50.954;4.716;2022-07-25T19:18:21;9.85;;;1.40;;
35239;SDS011;21376;50.954;4.716;2022-07-25T19:20:50;5.82;;;1.00;;
35239;SDS011;21376;50.954;4.716;2022-07-25T19:25:47;4.20;;;1.00;;
35239;SDS011;21376;50.954;4.716;2022-07-25T19:28:13;3.10;;;1.20;;
35239;SDS011;21376;50.954;4.716;2022-07-25T19:30:42;4.72;;;0.93;;
35239;SDS011;21376;50.954;4.716;2022-07-25T19:33:11;4.22;;;0.90;;
35239;SDS011;21376;50.954;4.716;2022-07-25T19:35:38;3.45;;;1.10;;